Hauptseite
METAR-TAF:

METAR-TAF

Flughäfen :

Newcastle Airport

Newcastle upon Tyne, England

Breite: 55-02N, Länge: 001-42W, Höhe: 81 m

Beobachtung

Neuester Wetterbericht von vor 39 Minuten, um 05:20 UTC
Wind 5 kt aus Nordwest
Temperatur 8°C
Luftfeuchtigkeit 87%
Luftdruck 1006 hPa
Sichtweite 10 km oder mehr

METAR: EGNT 040520Z AUTO 32005KT 9999 OVC043/// 08/06 Q1006

Zeit: 06:59 (05:59 UTC)

Prognose

Neuester Wetterbericht von vor 1 Stunde und 3 Minuten, um 04:56 UTC
Gültige Prognose vom 04 um 06 UTC bis 05 um 06 UTC
Wind 8 kt aus Nordwest
Sichtweite 10 km oder mehr
Aufgelockert bewölkt in der Höhe von 3500 ft
Zeitweise
vom 04 um 12 UTC bis 04 um 21 UTC
Sichtweite: 6000 m
Durchbrochene Bewölkung in der Höhe von 1400 ft
Regenschauer

TAF: EGNT 040456Z 0406/0506 31008KT 9999 SCT035 TEMPO 0412/0421 6000 SHRA BKN014

Wetterbeobachtungen und Prognosen von mehr als 4000 Flughäfen (METAR und TAF Bericht).

Die verfügbaren Stationen werden durch gelbe und rote Markierungen auf der Karte dargestellt.

Führen Sie die Maus auf sie, um den Namen der Station zu sehen.

Darauf klicken, um die Beobachtung von Wetterbeobachtungen und Prognosen zu sehen.

Um die Karte zu ändern : klicken Sie auf den grünen Tasten mit einem schwarzen Kreuz Zum Vergrößern, auf den grünen Button mit einem Gedankenstrich zu verkleinern, oder auf die grünen Pfeile für benachbarte Karten.


METAR-TAF: